Nysted, Nebraska
Current Conditions -  °F | °C
As of 9:25 PM on Wednesday 22 Oct 2014 (Local Time) from KGRI Reporting Station
Moderate Fog Moderate Fog  
Wind Chill: 57°   Ceiling: 1500
Heat Index: 57°   Visibility: 0.25mi
Dew Point: 55°   Wind: 0mph
Humidity: 93%   Direction: NA
Pressure: 30.04"   Gusts: NA
Location:  41.1605°N, 98.5709°W
Report Text: KGRI 230225Z AUTO 00000KT 1/4SM R35/1600V4500FT FG VV015 14/13 A3004 RMK AO2 T01390128
Loading
Personal Weather Stations






























Interactive Weather Map
Tropical Storm Tracking
New forecast layout! Learn more

10-Day Weather Forecast

Advertisements
Track Severe Weather on mobile